This is the latest recevied weather packets stored in our database for station/object WD9U. If no packets are shown the sender has not sent any weather packets the latest 10 day(s).
| Time | Temp. | Humidity | Pressure | Rain* | Wind** | Luminosity | Snow |
|---|---|---|---|---|---|---|---|
| 1777725919 | 3.89° C | 61% | 1018.7 hPa | 0 mm | - | 126 W/m² | - |
| 1777725796 | 3.89° C | 62% | 1018.8 hPa | 0 mm | - | 100 W/m² | - |
| 1777725436 | 3.33° C | 67% | 1018.7 hPa | 0 mm | - | 91 W/m² | - |
| 1777725076 | 2.78° C | 69% | 1018.6 hPa | 0 mm | - | 160 W/m² | - |
| 1777724716 | 2.22° C | 73% | 1018.7 hPa | 0 mm | - | 126 W/m² | - |
| 1777724356 | 1.67° C | 76% | 1018.7 hPa | 0 mm | - | 169 W/m² | - |
| 1777723997 | 1.11° C | 79% | 1018.7 hPa | 0 mm | - | 164 W/m² | - |
| 1777723636 | 0.56° C | 80% | 1018.7 hPa | 0 mm | - | 142 W/m² | - |
| 1777723519 | 0.56° C | 80% | 1018.6 hPa | 0 mm | - | 147 W/m² | - |
| 1777723276 | 0° C | 82% | 1018.6 hPa | 0 mm | - | 124 W/m² | - |
| 1777722916 | -0.56° C | 83% | 1018.6 hPa | 0 mm | - | 88 W/m² | - |
| 1777722556 | -1.11° C | 85% | 1018.7 hPa | 0 mm | - | 64 W/m² | - |
| 1777722318 | -1.11° C | 86% | 1018.6 hPa | 0 mm | - | 47 W/m² | - |
| 1777722196 | -1.67° C | 86% | 1018.7 hPa | 0 mm | - | 46 W/m² | - |
| 1777721836 | -2.22° C | 87% | 1018.6 hPa | 0 mm | - | 59 W/m² | - |
| 1777721476 | -2.78° C | 87% | 1018.6 hPa | 0 mm | - | 30 W/m² | - |
| 1777721116 | -2.78° C | 86% | 1018.5 hPa | 0 mm | - | 44 W/m² | - |
| 1777720755 | -3.33° C | 85% | 1018.6 hPa | 0 mm | - | 31 W/m² | - |
| 1777720395 | -3.33° C | 85% | 1018.5 hPa | 0 mm | - | 28 W/m² | - |
| 1777720034 | -3.33° C | 84% | 1018.4 hPa | 0 mm | - | 12 W/m² | - |
| 1777719984 | -3.33° C | 85% | 1018.5 hPa | 0 mm | - | 12 W/m² | - |
| 1777719916 | -3.33° C | 85% | 1018.5 hPa | 0 mm | - | 12 W/m² | - |
| 1777719674 | -3.33° C | 84% | 1018.5 hPa | 0 mm | - | 9 W/m² | - |
| 1777719314 | -3.33° C | 84% | 1018.5 hPa | 0 mm | - | 6 W/m² | - |
| 1777718954 | -3.33° C | 84% | 1018.6 hPa | 0 mm | - | 4 W/m² | - |
* Rain latest hour (hover to see other rain measurements)
** Current wind speed in m/s (hover to see current wind gust speed)